createdAt,value
2022-10-02T00:00:19.671Z,2.13
2022-10-02T00:02:50.633Z,2.00
2022-10-02T00:05:22.195Z,2.07
2022-10-02T00:07:52.144Z,1.73
2022-10-02T00:10:23.487Z,2.20
2022-10-02T00:12:53.502Z,1.73
2022-10-02T00:15:23.679Z,1.90
2022-10-02T00:17:54.042Z,1.80
2022-10-02T00:20:27.230Z,2.37
2022-10-02T00:23:01.001Z,2.07
2022-10-02T00:25:34.099Z,2.50
2022-10-02T00:28:08.743Z,2.13
2022-10-02T00:30:43.949Z,2.20
2022-10-02T00:33:16.328Z,2.00
2022-10-02T00:35:58.674Z,2.47
2022-10-02T00:38:33.610Z,2.50
2022-10-02T00:41:11.393Z,2.17
2022-10-02T00:43:43.048Z,2.43
2022-10-02T00:46:19.217Z,2.57
2022-10-02T00:49:01.507Z,2.80
2022-10-02T00:51:37.656Z,2.63
2022-10-02T00:54:15.604Z,2.87
2022-10-02T00:56:48.117Z,2.77
2022-10-02T00:59:26.223Z,2.93
2022-10-02T01:01:58.204Z,3.13
2022-10-02T01:04:30.664Z,2.67
2022-10-02T01:07:00.885Z,3.20
2022-10-02T01:09:29.832Z,3.57
2022-10-02T01:11:58.932Z,3.10
2022-10-02T01:14:33.839Z,3.33
2022-10-02T01:17:02.436Z,3.30
2022-10-02T01:19:37.891Z,3.27
2022-10-02T01:22:12.153Z,3.30
2022-10-02T01:24:48.472Z,3.50
2022-10-02T01:27:17.154Z,3.87
2022-10-02T01:29:46.322Z,3.77
2022-10-02T01:32:14.759Z,4.00
2022-10-02T01:34:43.738Z,3.63
2022-10-02T01:37:12.443Z,4.13
2022-10-02T01:39:41.275Z,3.93
2022-10-02T01:42:11.493Z,4.57
2022-10-02T01:44:40.071Z,4.57
2022-10-02T01:47:11.510Z,4.43
2022-10-02T01:49:46.783Z,4.10
2022-10-02T01:52:21.201Z,4.60
2022-10-02T01:54:56.652Z,4.53
2022-10-02T01:57:35.231Z,5.27
2022-10-02T02:00:08.454Z,4.57
2022-10-02T02:02:43.930Z,4.93
2022-10-02T02:05:14.775Z,5.17
2022-10-02T02:07:47.750Z,6.03
2022-10-02T02:10:19.723Z,5.93
2022-10-02T02:12:51.928Z,5.80
2022-10-02T02:15:22.259Z,6.30
2022-10-02T02:17:52.735Z,6.77
2022-10-02T02:20:24.205Z,6.87
2022-10-02T02:22:54.838Z,6.77
2022-10-02T02:25:27.297Z,7.93
2022-10-02T02:27:58.739Z,8.00
2022-10-02T02:30:27.551Z,8.40
2022-10-02T02:32:58.667Z,8.50
2022-10-02T02:35:28.339Z,9.80
2022-10-02T02:37:57.901Z,10.03
2022-10-02T02:40:28.666Z,10.90
2022-10-02T02:43:00.348Z,10.50
2022-10-02T02:45:32.040Z,9.67
2022-10-02T02:48:04.413Z,10.47
2022-10-02T02:50:34.811Z,9.20
2022-10-02T02:53:06.748Z,10.23
2022-10-02T02:55:39.376Z,9.43
2022-10-02T02:58:14.246Z,10.30
2022-10-02T03:00:43.005Z,10.50
2022-10-02T03:03:11.774Z,11.73
2022-10-02T03:05:44.153Z,10.60
2022-10-02T03:08:16.449Z,12.73
2022-10-02T03:10:48.028Z,13.43
2022-10-02T03:13:25.088Z,12.83
2022-10-02T03:15:59.383Z,13.60
2022-10-02T03:18:33.554Z,13.30
2022-10-02T03:21:05.881Z,13.50
2022-10-02T03:23:38.004Z,13.43
2022-10-02T03:26:10.440Z,12.70
2022-10-02T03:28:55.664Z,12.40
2022-10-02T03:31:26.499Z,12.77
2022-10-02T03:33:55.335Z,12.87
2022-10-02T03:36:24.800Z,13.60
2022-10-02T03:39:19.909Z,13.60
2022-10-02T03:41:42.898Z,14.50
2022-10-02T03:44:12.786Z,15.67
2022-10-02T03:46:41.326Z,16.77
2022-10-02T03:49:09.886Z,17.93
2022-10-02T03:51:38.367Z,17.67
2022-10-02T03:54:08.742Z,18.27
2022-10-02T03:56:40.947Z,18.20
2022-10-02T03:59:16.004Z,17.80
2022-10-02T04:01:49.109Z,18.20
2022-10-02T04:04:20.295Z,17.60
2022-10-02T04:06:50.041Z,17.93
2022-10-02T04:09:20.542Z,19.20
2022-10-02T04:11:51.533Z,18.67
2022-10-02T04:14:22.471Z,17.47
2022-10-02T04:16:54.019Z,18.30
2022-10-02T04:19:24.344Z,18.70
2022-10-02T04:21:55.899Z,18.70
2022-10-02T04:24:30.224Z,18.43
2022-10-02T04:27:02.341Z,18.60
2022-10-02T04:29:35.503Z,18.93
2022-10-02T04:32:09.983Z,20.23
2022-10-02T04:34:38.429Z,19.03
2022-10-02T04:37:13.066Z,19.00
2022-10-02T04:39:49.179Z,18.67
2022-10-02T04:42:25.303Z,17.97
2022-10-02T04:45:04.125Z,17.30
2022-10-02T04:47:50.229Z,17.87
2022-10-02T04:50:23.585Z,17.53
2022-10-02T04:53:12.085Z,17.53
2022-10-02T04:56:01.546Z,17.43
2022-10-02T04:58:47.829Z,16.57
2022-10-02T05:01:24.662Z,16.57
2022-10-02T05:04:03.737Z,16.37
2022-10-02T05:06:40.800Z,16.33
2022-10-02T05:09:12.453Z,16.23
2022-10-02T05:11:55.744Z,15.40
2022-10-02T05:14:42.182Z,15.87
2022-10-02T05:17:20.249Z,15.50
2022-10-02T05:19:58.040Z,15.73
2022-10-02T05:22:45.519Z,15.43
2022-10-02T05:25:21.251Z,15.13
2022-10-02T05:28:01.772Z,14.80
2022-10-02T05:30:32.083Z,13.87
2022-10-02T05:33:16.284Z,14.20
2022-10-02T05:35:55.228Z,14.20
2022-10-02T05:38:30.986Z,14.00
2022-10-02T05:41:03.165Z,13.43
2022-10-02T05:43:34.804Z,13.80
2022-10-02T05:46:05.575Z,13.63
2022-10-02T05:48:39.197Z,13.50
2022-10-02T05:51:10.253Z,13.17
2022-10-02T05:53:41.435Z,13.17
2022-10-02T05:56:12.353Z,12.40
2022-10-02T05:58:45.228Z,11.97
2022-10-02T06:01:15.423Z,11.57
2022-10-02T06:03:48.342Z,12.37
2022-10-02T06:06:18.988Z,11.37
2022-10-02T06:08:48.950Z,11.67
2022-10-02T06:11:21.435Z,11.30
2022-10-02T06:13:52.050Z,10.13
2022-10-02T06:16:24.313Z,10.27
2022-10-02T06:18:56.250Z,10.37
2022-10-02T06:21:33.288Z,10.73
2022-10-02T06:24:05.379Z,10.23
2022-10-02T06:26:39.689Z,10.50
2022-10-02T06:29:17.443Z,10.63
2022-10-02T06:31:50.187Z,10.90
2022-10-02T06:34:20.854Z,10.73
2022-10-02T06:36:54.554Z,10.53
2022-10-02T06:39:31.301Z,11.17
2022-10-02T06:42:07.565Z,10.60
2022-10-02T06:44:43.023Z,10.50
2022-10-02T06:47:17.418Z,11.00
2022-10-02T06:49:57.948Z,11.37
2022-10-02T06:52:37.150Z,11.13
2022-10-02T06:55:20.270Z,10.70
2022-10-02T06:57:58.002Z,10.40
2022-10-02T07:00:27.167Z,11.30
2022-10-02T07:03:16.704Z,10.70
2022-10-02T07:06:15.186Z,10.17
2022-10-02T07:09:16.756Z,10.37
2022-10-02T07:11:51.779Z,9.70
2022-10-02T07:14:28.344Z,9.80
2022-10-02T07:17:22.087Z,10.20
2022-10-02T07:19:58.497Z,10.97
2022-10-02T07:22:50.263Z,9.50
2022-10-02T07:25:33.824Z,10.93
2022-10-02T07:28:09.039Z,10.50
2022-10-02T07:30:42.093Z,10.10
2022-10-02T07:33:13.883Z,10.63
2022-10-02T07:35:44.234Z,10.17
2022-10-02T07:38:22.485Z,9.70
2022-10-02T07:40:59.799Z,10.07
2022-10-02T07:43:37.151Z,9.77
2022-10-02T07:46:13.225Z,9.80
2022-10-02T07:48:57.412Z,9.97
2022-10-02T07:51:49.998Z,10.10
2022-10-02T07:54:43.475Z,9.83
2022-10-02T07:57:18.853Z,9.37
2022-10-02T07:59:50.071Z,9.03
2022-10-02T08:02:21.048Z,8.70
2022-10-02T08:04:49.825Z,9.23
2022-10-02T08:07:18.327Z,8.70
2022-10-02T08:09:49.204Z,7.67
2022-10-02T08:12:20.794Z,7.33
2022-10-02T08:14:52.697Z,6.93
2022-10-02T08:17:28.651Z,6.87
2022-10-02T08:19:59.134Z,7.53
2022-10-02T08:22:31.370Z,6.67
2022-10-02T08:25:02.176Z,6.33
2022-10-02T08:27:36.326Z,6.30
2022-10-02T08:30:06.859Z,5.83
2022-10-02T08:32:36.335Z,6.43
2022-10-02T08:35:08.601Z,5.50
2022-10-02T08:37:43.197Z,4.70
2022-10-02T08:40:37.716Z,4.93
2022-10-02T08:43:26.516Z,4.07
2022-10-02T08:46:13.308Z,4.13
2022-10-02T08:49:03.280Z,3.50
2022-10-02T08:51:46.628Z,4.00
2022-10-02T08:54:38.787Z,3.90
2022-10-02T08:57:17.731Z,3.63
2022-10-02T08:59:58.190Z,4.00
2022-10-02T09:02:50.949Z,3.17
2022-10-02T09:05:39.487Z,3.60
2022-10-02T09:08:26.492Z,3.83
2022-10-02T09:11:12.636Z,3.23
2022-10-02T09:14:02.792Z,3.27
2022-10-02T09:16:35.051Z,2.93
2022-10-02T09:19:07.618Z,3.23
2022-10-02T09:21:52.632Z,3.00
2022-10-02T09:24:38.714Z,2.97
2022-10-02T09:27:25.463Z,3.03
2022-10-02T09:30:07.348Z,2.78
2022-10-02T09:32:57.732Z,3.05
2022-10-02T09:35:56.121Z,2.70
2022-10-02T09:38:39.453Z,3.03
2022-10-02T09:41:30.842Z,2.63
2022-10-02T09:44:20.620Z,2.78
2022-10-02T09:47:11.067Z,2.80
2022-10-02T09:50:00.648Z,3.03
2022-10-02T09:52:58.115Z,3.00
2022-10-02T09:55:59.454Z,3.00
2022-10-02T09:58:46.216Z,2.60
2022-10-02T10:01:24.534Z,2.85
2022-10-02T10:04:12.960Z,2.88
2022-10-02T10:06:52.519Z,3.00
2022-10-02T10:09:44.865Z,2.35
2022-10-02T10:12:32.071Z,2.92
2022-10-02T10:15:12.764Z,3.10
2022-10-02T10:18:05.019Z,3.25
2022-10-02T10:20:54.480Z,3.20
2022-10-02T10:23:32.071Z,3.80
2022-10-02T10:26:07.193Z,3.17
2022-10-02T10:28:48.810Z,2.90
2022-10-02T10:31:41.588Z,2.80
2022-10-02T10:34:30.848Z,3.07
2022-10-02T10:37:19.619Z,2.80
2022-10-02T10:40:08.592Z,2.67
2022-10-02T10:43:06.968Z,2.77
2022-10-02T10:45:42.715Z,2.80
2022-10-02T10:48:29.084Z,3.30
2022-10-02T10:51:01.587Z,3.15
2022-10-02T10:53:51.442Z,3.00
2022-10-02T10:56:36.863Z,3.00
2022-10-02T10:59:24.456Z,2.83
2022-10-02T11:02:02.197Z,2.65
2022-10-02T11:04:39.580Z,2.55
2022-10-02T11:07:23.016Z,2.72
2022-10-02T11:10:07.901Z,2.72
2022-10-02T11:12:58.339Z,2.97
2022-10-02T11:15:32.039Z,2.80
2022-10-02T11:18:14.752Z,2.67
2022-10-02T11:20:56.171Z,2.80
2022-10-02T11:23:45.330Z,3.30
2022-10-02T11:26:32.412Z,4.07
2022-10-02T11:29:13.692Z,3.22
2022-10-02T11:31:53.951Z,2.78
2022-10-02T11:34:28.439Z,2.65
2022-10-02T11:37:05.739Z,2.90
2022-10-02T11:39:44.869Z,2.80
2022-10-02T11:42:19.735Z,2.20
2022-10-02T11:45:02.708Z,2.00
2022-10-02T11:47:58.350Z,1.90
2022-10-02T11:50:47.786Z,1.70
2022-10-02T11:53:35.794Z,1.90
2022-10-02T11:56:11.811Z,1.70
2022-10-02T11:58:47.373Z,1.95
2022-10-02T12:01:32.216Z,2.25
2022-10-02T12:04:13.315Z,1.88
2022-10-02T12:06:51.884Z,2.13
2022-10-02T12:09:24.747Z,2.15
2022-10-02T12:11:58.126Z,2.50
2022-10-02T12:14:31.483Z,2.78
2022-10-02T12:17:17.632Z,2.50
2022-10-02T12:20:10.979Z,2.30
2022-10-02T12:23:03.024Z,1.48
2022-10-02T12:25:52.396Z,1.27
2022-10-02T12:28:24.611Z,0.95
2022-10-02T12:31:00.421Z,1.15
2022-10-02T12:33:33.011Z,0.93
2022-10-02T12:36:12.144Z,0.90
2022-10-02T12:38:47.756Z,1.17
2022-10-02T12:41:23.908Z,1.02
2022-10-02T12:44:00.961Z,0.80
2022-10-02T12:46:33.831Z,0.95
2022-10-02T12:49:12.461Z,1.48
2022-10-02T12:51:54.591Z,1.30
2022-10-02T12:54:41.041Z,1.38
2022-10-02T12:57:39.074Z,1.27
2022-10-02T13:00:14.528Z,1.40
2022-10-02T13:03:05.615Z,1.35
2022-10-02T13:05:47.025Z,1.50
2022-10-02T13:08:37.963Z,1.30
2022-10-02T13:11:11.255Z,1.40
2022-10-02T13:13:51.625Z,1.42
2022-10-02T13:16:26.349Z,1.70
2022-10-02T13:19:01.444Z,1.65
2022-10-02T13:21:37.716Z,1.30
2022-10-02T13:24:17.083Z,1.58
2022-10-02T13:26:49.123Z,1.60
2022-10-02T13:29:26.567Z,1.60
2022-10-02T13:31:59.818Z,1.88
2022-10-02T13:34:38.607Z,1.80
2022-10-02T13:37:15.770Z,1.42
2022-10-02T13:40:01.986Z,1.50
2022-10-02T13:42:37.287Z,1.70
2022-10-02T13:45:10.831Z,1.83
2022-10-02T13:47:42.117Z,1.85
2022-10-02T13:50:19.746Z,1.73
2022-10-02T13:52:54.614Z,3.13
2022-10-02T13:55:26.711Z,1.88
2022-10-02T13:58:05.329Z,1.80
2022-10-02T14:00:50.923Z,1.75
2022-10-02T14:03:26.069Z,1.88
2022-10-02T14:05:58.042Z,1.92
2022-10-02T14:08:36.402Z,1.50
2022-10-02T14:11:10.397Z,2.15
2022-10-02T14:13:48.236Z,1.50
2022-10-02T14:16:25.647Z,1.98
2022-10-02T14:19:08.707Z,1.95
2022-10-02T14:21:39.468Z,1.90
2022-10-02T14:24:23.010Z,2.05
2022-10-02T14:27:00.895Z,1.70
2022-10-02T14:29:36.781Z,1.92
2022-10-02T14:32:22.623Z,1.80
2022-10-02T14:35:00.547Z,2.13
2022-10-02T14:37:52.887Z,1.85
2022-10-02T14:40:21.790Z,1.83
2022-10-02T14:43:08.909Z,1.80
2022-10-02T14:45:55.003Z,1.60
2022-10-02T14:48:33.394Z,1.70
2022-10-02T14:51:12.516Z,2.10
2022-10-02T14:53:47.075Z,2.17
2022-10-02T14:56:30.369Z,1.87
2022-10-02T14:59:10.472Z,2.10
2022-10-02T15:01:42.264Z,1.63
2022-10-02T15:04:23.374Z,1.83
2022-10-02T15:07:00.880Z,2.03
2022-10-02T15:09:31.928Z,1.90
2022-10-02T15:12:11.371Z,1.77
2022-10-02T15:14:43.784Z,2.33
2022-10-02T15:17:33.557Z,1.83
2022-10-02T15:20:06.295Z,2.10
2022-10-02T15:22:37.456Z,2.10
2022-10-02T15:25:17.953Z,1.90
2022-10-02T15:27:48.426Z,2.60
2022-10-02T15:30:22.341Z,2.43
2022-10-02T15:32:56.933Z,2.30
2022-10-02T15:35:42.922Z,2.50
2022-10-02T15:38:21.758Z,2.50
2022-10-02T15:40:57.174Z,2.60
2022-10-02T15:43:34.834Z,2.67
2022-10-02T15:46:13.040Z,2.13
2022-10-02T15:48:52.524Z,2.57
2022-10-02T15:51:31.133Z,2.40
2022-10-02T15:54:04.943Z,2.33
2022-10-02T15:56:52.198Z,2.30
2022-10-02T15:59:32.427Z,2.27
2022-10-02T16:02:12.863Z,2.60
2022-10-02T16:04:46.865Z,2.13
2022-10-02T16:07:25.008Z,2.57
2022-10-02T16:10:01.033Z,2.30
2022-10-02T16:12:37.069Z,2.53
2022-10-02T16:15:14.719Z,2.70
2022-10-02T16:17:55.205Z,2.63
2022-10-02T16:20:35.708Z,2.33
2022-10-02T16:23:20.948Z,3.57
2022-10-02T16:25:56.621Z,2.83
2022-10-02T16:28:32.983Z,3.10
2022-10-02T16:31:21.083Z,2.70
2022-10-02T16:33:57.663Z,2.70
2022-10-02T16:36:34.325Z,2.67
2022-10-02T16:39:15.579Z,3.17
2022-10-02T16:41:57.775Z,3.10
2022-10-02T16:44:47.264Z,2.37
2022-10-02T16:47:17.457Z,2.60
2022-10-02T16:49:52.617Z,2.80
2022-10-02T16:52:44.350Z,2.80
2022-10-02T16:55:18.180Z,2.50
2022-10-02T16:57:52.029Z,3.10
2022-10-02T17:00:25.658Z,2.50
2022-10-02T17:02:58.158Z,3.00
2022-10-02T17:05:30.139Z,2.60
2022-10-02T17:08:02.005Z,2.70
2022-10-02T17:10:37.252Z,2.83
2022-10-02T17:13:14.216Z,3.50
2022-10-02T17:15:48.171Z,3.30
2022-10-02T17:18:20.879Z,2.60
2022-10-02T17:20:53.821Z,3.20
2022-10-02T17:23:25.443Z,3.13
2022-10-02T17:25:58.433Z,3.93
2022-10-02T17:28:30.214Z,3.33
2022-10-02T17:31:09.986Z,3.13
2022-10-02T17:33:46.280Z,3.30
2022-10-02T17:36:20.049Z,2.90
2022-10-02T17:38:57.852Z,2.80
2022-10-02T17:41:30.314Z,2.70
2022-10-02T17:44:02.820Z,2.70
2022-10-02T17:46:37.185Z,2.40
2022-10-02T17:49:08.906Z,2.13
2022-10-02T17:51:59.000Z,2.60
2022-10-02T17:55:00.863Z,2.40
2022-10-02T17:57:35.771Z,2.03
2022-10-02T18:00:11.973Z,2.70
2022-10-02T18:02:49.518Z,2.30
2022-10-02T18:05:29.034Z,2.53
2022-10-02T18:08:07.981Z,2.10
2022-10-02T18:10:40.763Z,2.30
2022-10-02T18:13:21.494Z,2.27
2022-10-02T18:15:58.612Z,2.00
2022-10-02T18:18:32.755Z,2.30
2022-10-02T18:21:04.877Z,2.70
2022-10-02T18:23:43.828Z,2.37
2022-10-02T18:26:21.112Z,2.60
2022-10-02T18:28:56.668Z,2.23
2022-10-02T18:31:54.780Z,2.30
2022-10-02T18:34:31.648Z,2.50
2022-10-02T18:37:10.540Z,2.57
2022-10-02T18:39:42.691Z,2.90
2022-10-02T18:42:41.089Z,2.80
2022-10-02T18:45:18.157Z,2.33
2022-10-02T18:47:51.521Z,3.07
2022-10-02T18:50:33.706Z,2.63
2022-10-02T18:53:09.562Z,3.10
2022-10-02T18:55:45.975Z,2.33
2022-10-02T18:58:21.517Z,2.63
2022-10-02T19:00:59.646Z,2.67
2022-10-02T19:03:32.887Z,2.40
2022-10-02T19:06:08.559Z,2.70
2022-10-02T19:08:59.354Z,3.47
2022-10-02T19:11:30.136Z,2.40
2022-10-02T19:14:03.329Z,2.90
2022-10-02T19:16:32.320Z,2.97
2022-10-02T19:19:09.905Z,3.00
2022-10-02T19:21:39.628Z,2.93
2022-10-02T19:24:14.372Z,3.10
2022-10-02T19:26:46.497Z,3.00
2022-10-02T19:29:26.047Z,3.43
2022-10-02T19:31:55.403Z,3.30
2022-10-02T19:34:30.623Z,3.13
2022-10-02T19:37:00.679Z,2.30
2022-10-02T19:39:31.523Z,3.00
2022-10-02T19:42:03.172Z,2.60
2022-10-02T19:44:33.109Z,3.23
2022-10-02T19:47:03.120Z,3.00
2022-10-02T19:49:34.433Z,3.13
2022-10-02T19:52:03.139Z,3.10
2022-10-02T19:54:33.924Z,3.00
2022-10-02T19:57:06.760Z,2.57
2022-10-02T19:59:43.054Z,3.17
2022-10-02T20:02:16.873Z,2.73
2022-10-02T20:04:45.466Z,3.00
2022-10-02T20:07:17.043Z,3.17
2022-10-02T20:09:47.116Z,3.50
2022-10-02T20:12:18.359Z,2.70
2022-10-02T20:14:48.742Z,2.70
2022-10-02T20:17:17.906Z,2.90
2022-10-02T20:19:50.783Z,2.70
2022-10-02T20:22:28.253Z,3.20
2022-10-02T20:24:58.897Z,2.97
2022-10-02T20:27:34.873Z,3.33
2022-10-02T20:30:07.235Z,3.13
2022-10-02T20:32:37.610Z,3.00
2022-10-02T20:35:09.704Z,2.90
2022-10-02T20:37:39.549Z,3.37
2022-10-02T20:40:11.655Z,3.03
2022-10-02T20:42:44.700Z,3.10
2022-10-02T20:45:14.939Z,3.00
2022-10-02T20:48:01.379Z,3.50
2022-10-02T20:50:41.568Z,3.30
2022-10-02T20:53:28.922Z,2.80
2022-10-02T20:56:00.152Z,2.93
2022-10-02T20:58:48.803Z,3.10
2022-10-02T21:01:18.995Z,3.27
2022-10-02T21:03:56.608Z,3.97
2022-10-02T21:06:43.557Z,3.10
2022-10-02T21:09:32.588Z,3.47
2022-10-02T21:12:11.529Z,3.17
2022-10-02T21:14:54.651Z,3.17
2022-10-02T21:17:42.424Z,3.10
2022-10-02T21:20:46.080Z,3.00
2022-10-02T21:23:29.236Z,3.17
2022-10-02T21:26:17.426Z,2.70
2022-10-02T21:28:59.884Z,3.33
2022-10-02T21:31:41.480Z,3.10
2022-10-02T21:34:18.299Z,2.97
2022-10-02T21:36:49.448Z,3.10
2022-10-02T21:39:38.642Z,3.57
2022-10-02T21:42:22.045Z,3.00
2022-10-02T21:45:08.579Z,2.83
2022-10-02T21:47:58.041Z,3.27
2022-10-02T21:50:46.979Z,3.10
2022-10-02T21:53:36.267Z,3.20
2022-10-02T21:56:25.443Z,3.10
2022-10-02T21:59:26.960Z,3.67
2022-10-02T22:02:14.919Z,3.23
2022-10-02T22:05:01.620Z,2.90
2022-10-02T22:07:34.699Z,3.00
2022-10-02T22:10:05.014Z,3.03
2022-10-02T22:12:45.525Z,3.10
2022-10-02T22:15:17.138Z,2.80
2022-10-02T22:17:54.877Z,3.40
2022-10-02T22:20:38.206Z,3.17
2022-10-02T22:23:15.816Z,2.87
2022-10-02T22:25:52.172Z,3.00
2022-10-02T22:28:24.531Z,3.20
2022-10-02T22:31:13.900Z,2.90
2022-10-02T22:33:55.072Z,3.33
2022-10-02T22:36:30.245Z,3.30
2022-10-02T22:39:05.471Z,2.93
2022-10-02T22:41:38.515Z,3.53
2022-10-02T22:44:11.177Z,3.33
2022-10-02T22:46:47.638Z,3.37
2022-10-02T22:49:20.565Z,3.30
2022-10-02T22:51:59.218Z,3.73
2022-10-02T22:54:31.792Z,3.67
2022-10-02T22:57:08.255Z,3.20
2022-10-02T22:59:40.626Z,3.33
2022-10-02T23:02:11.538Z,3.20
2022-10-02T23:04:41.592Z,3.50
2022-10-02T23:07:14.439Z,3.07
2022-10-02T23:09:47.754Z,4.23
2022-10-02T23:12:18.986Z,3.20
2022-10-02T23:14:56.613Z,3.60
2022-10-02T23:17:28.784Z,3.37
2022-10-02T23:20:01.063Z,3.10
2022-10-02T23:22:31.575Z,3.57
2022-10-02T23:25:04.863Z,3.40
2022-10-02T23:27:40.066Z,3.37
2022-10-02T23:30:11.571Z,3.30
2022-10-02T23:32:45.180Z,3.47
2022-10-02T23:35:15.570Z,3.33
2022-10-02T23:37:48.556Z,3.43
2022-10-02T23:40:43.160Z,3.57
2022-10-02T23:43:15.003Z,3.50
2022-10-02T23:45:47.086Z,2.90
2022-10-02T23:48:16.516Z,3.63
2022-10-02T23:50:48.846Z,3.17
2022-10-02T23:53:28.292Z,3.10
2022-10-02T23:56:08.026Z,3.27
2022-10-02T23:58:45.655Z,3.07
